sensor_id;sensor_type;location;lat;lon;timestamp;pressure;altitude;pressure_sealevel;temperature;humidity
72921;BME280;61064;51.654;5.476;2023-05-22T00:00:28;101493.63;;;16.86;76.72
72921;BME280;61064;51.654;5.476;2023-05-22T00:02:55;101504.41;;;16.81;76.93
72921;BME280;61064;51.654;5.476;2023-05-22T00:05:21;101502.66;;;16.77;77.11
72921;BME280;61064;51.654;5.476;2023-05-22T00:07:46;101505.34;;;16.77;77.16
72921;BME280;61064;51.654;5.476;2023-05-22T00:10:12;101494.63;;;16.73;77.09
72921;BME280;61064;51.654;5.476;2023-05-22T00:12:37;101492.88;;;16.70;77.36
72921;BME280;61064;51.654;5.476;2023-05-22T00:15:03;101495.56;;;16.67;77.78
72921;BME280;61064;51.654;5.476;2023-05-22T00:17:28;101502.72;;;16.67;77.92
72921;BME280;61064;51.654;5.476;2023-05-22T00:19:55;101498.25;;;16.67;77.82
72921;BME280;61064;51.654;5.476;2023-05-22T00:22:20;101495.59;;;16.64;77.98
72921;BME280;61064;51.654;5.476;2023-05-22T00:24:46;101500.97;;;16.64;78.06
72921;BME280;61064;51.654;5.476;2023-05-22T00:27:11;101496.50;;;16.63;78.00
72921;BME280;61064;51.654;5.476;2023-05-22T00:29:37;101494.72;;;16.62;78.16
72921;BME280;61064;51.654;5.476;2023-05-22T00:32:03;101496.50;;;16.61;78.23
72921;BME280;61064;51.654;5.476;2023-05-22T00:34:28;101492.91;;;16.61;78.54
72921;BME280;61064;51.654;5.476;2023-05-22T00:36:54;101502.75;;;16.63;78.38
72921;BME280;61064;51.654;5.476;2023-05-22T00:39:19;101500.94;;;16.67;78.42
72921;BME280;61064;51.654;5.476;2023-05-22T00:41:44;101502.72;;;16.68;78.27
72921;BME280;61064;51.654;5.476;2023-05-22T00:44:10;101495.56;;;16.67;78.42
72921;BME280;61064;51.654;5.476;2023-05-22T00:46:39;101495.59;;;16.64;78.65
72921;BME280;61064;51.654;5.476;2023-05-22T00:49:05;101487.53;;;16.61;78.60
72921;BME280;61064;51.654;5.476;2023-05-22T00:51:30;101488.44;;;16.61;78.73
72921;BME280;61064;51.654;5.476;2023-05-22T00:53:56;101484.00;;;16.59;78.87
72921;BME280;61064;51.654;5.476;2023-05-22T00:56:21;101492.91;;;16.61;78.83
72921;BME280;61064;51.654;5.476;2023-05-22T00:58:47;101498.28;;;16.62;78.77
72921;BME280;61064;51.654;5.476;2023-05-22T01:01:13;101483.97;;;16.65;78.92
72921;BME280;61064;51.654;5.476;2023-05-22T01:03:41;101478.59;;;16.62;78.87
72921;BME280;61064;51.654;5.476;2023-05-22T01:06:12;101483.91;;;16.68;78.90
72921;BME280;61064;51.654;5.476;2023-05-22T01:08:38;101485.75;;;16.66;79.10
72921;BME280;61064;51.654;5.476;2023-05-22T01:11:18;101477.69;;;16.65;79.02
72921;BME280;61064;51.654;5.476;2023-05-22T01:21:33;101481.28;;;16.56;79.28
72921;BME280;61064;51.654;5.476;2023-05-22T01:32:32;101473.34;;;16.39;79.93
72921;BME280;61064;51.654;5.476;2023-05-22T01:35:00;101466.22;;;16.37;79.93
72921;BME280;61064;51.654;5.476;2023-05-22T01:37:26;101465.34;;;16.35;80.18
72921;BME280;61064;51.654;5.476;2023-05-22T01:39:52;101472.53;;;16.30;80.38
72921;BME280;61064;51.654;5.476;2023-05-22T01:42:19;101473.47;;;16.27;80.52
72921;BME280;61064;51.654;5.476;2023-05-22T01:44:44;101472.59;;;16.25;80.60
72921;BME280;61064;51.654;5.476;2023-05-22T01:47:11;101471.69;;;16.26;80.64
72921;BME280;61064;51.654;5.476;2023-05-22T01:49:40;101467.22;;;16.23;80.71
72921;BME280;61064;51.654;5.476;2023-05-22T01:52:14;101466.31;;;16.25;80.78
72921;BME280;61064;51.654;5.476;2023-05-22T01:54:54;101469.00;;;16.23;81.12
72921;BME280;61064;51.654;5.476;2023-05-22T01:57:27;101470.81;;;16.21;81.06
72921;BME280;61064;51.654;5.476;2023-05-22T02:00:01;101468.16;;;16.16;81.21
72921;BME280;61064;51.654;5.476;2023-05-22T02:02:32;101461.03;;;16.12;81.18
72921;BME280;61064;51.654;5.476;2023-05-22T02:05:00;101468.19;;;16.13;81.31
72921;BME280;61064;51.654;5.476;2023-05-22T02:07:29;101462.84;;;16.10;81.56
72921;BME280;61064;51.654;5.476;2023-05-22T02:09:56;101455.69;;;16.06;81.69
72921;BME280;61064;51.654;5.476;2023-05-22T02:12:22;101462.88;;;16.04;81.69
72921;BME280;61064;51.654;5.476;2023-05-22T02:14:49;101453.03;;;16.00;82.04
72921;BME280;61064;51.654;5.476;2023-05-22T02:17:15;101460.22;;;15.97;81.99
72921;BME280;61064;51.654;5.476;2023-05-22T02:19:47;101464.72;;;15.99;82.40
72921;BME280;61064;51.654;5.476;2023-05-22T02:22:13;101458.44;;;15.96;82.31
72921;BME280;61064;51.654;5.476;2023-05-22T02:24:44;101444.16;;;15.91;82.58
72921;BME280;61064;51.654;5.476;2023-05-22T02:27:11;101447.75;;;15.93;82.31
72921;BME280;61064;51.654;5.476;2023-05-22T02:29:37;101450.44;;;15.93;82.36
72921;BME280;61064;51.654;5.476;2023-05-22T02:32:02;101454.91;;;15.94;82.56
72921;BME280;61064;51.654;5.476;2023-05-22T02:34:28;101440.63;;;15.87;82.52
72921;BME280;61064;51.654;5.476;2023-05-22T02:37:00;101454.88;;;15.95;82.71
72921;BME280;61064;51.654;5.476;2023-05-22T02:39:28;101435.25;;;15.86;82.75
72921;BME280;61064;51.654;5.476;2023-05-22T02:41:56;101431.69;;;15.84;82.75
72921;BME280;61064;51.654;5.476;2023-05-22T02:44:24;101430.81;;;15.82;82.83
72921;BME280;61064;51.654;5.476;2023-05-22T02:46:50;101442.44;;;15.80;82.83
72921;BME280;61064;51.654;5.476;2023-05-22T02:49:15;101436.16;;;15.85;82.85
72921;BME280;61064;51.654;5.476;2023-05-22T02:51:41;101435.28;;;15.81;82.97
72921;BME280;61064;51.654;5.476;2023-05-22T02:54:11;101445.09;;;15.87;82.74
72921;BME280;61064;51.654;5.476;2023-05-22T02:56:36;101437.94;;;15.84;82.94
72921;BME280;61064;51.654;5.476;2023-05-22T02:59:02;101442.44;;;15.82;83.11
72921;BME280;61064;51.654;5.476;2023-05-22T03:01:27;101438.88;;;15.82;83.08
72921;BME280;61064;51.654;5.476;2023-05-22T03:03:54;101439.75;;;15.82;82.95
72921;BME280;61064;51.654;5.476;2023-05-22T03:06:19;101434.38;;;15.77;83.05
72921;BME280;61064;51.654;5.476;2023-05-22T03:08:46;101425.47;;;15.72;83.33
72921;BME280;61064;51.654;5.476;2023-05-22T03:11:12;101441.56;;;15.74;83.16
72921;BME280;61064;51.654;5.476;2023-05-22T03:13:38;101429.97;;;15.70;83.01
72921;BME280;61064;51.654;5.476;2023-05-22T03:16:03;101437.13;;;15.67;83.25
72921;BME280;61064;51.654;5.476;2023-05-22T03:18:29;101437.16;;;15.64;83.29
72921;BME280;61064;51.654;5.476;2023-05-22T03:20:54;101438.06;;;15.61;83.24
72921;BME280;61064;51.654;5.476;2023-05-22T03:23:19;101438.97;;;15.59;83.49
72921;BME280;61064;51.654;5.476;2023-05-22T03:25:45;101422.00;;;15.54;83.53
72921;BME280;61064;51.654;5.476;2023-05-22T03:28:11;101430.06;;;15.54;83.45
72921;BME280;61064;51.654;5.476;2023-05-22T03:30:37;101432.75;;;15.52;83.40
72921;BME280;61064;51.654;5.476;2023-05-22T03:33:02;101430.91;;;15.51;83.51
72921;BME280;61064;51.654;5.476;2023-05-22T03:35:28;101417.56;;;15.42;83.44
72921;BME280;61064;51.654;5.476;2023-05-22T03:37:53;101434.53;;;15.41;83.52
72921;BME280;61064;51.654;5.476;2023-05-22T03:40:18;101426.53;;;15.36;83.56
72921;BME280;61064;51.654;5.476;2023-05-22T03:42:44;101425.63;;;15.34;83.39
72921;BME280;61064;51.654;5.476;2023-05-22T03:45:15;101416.75;;;15.26;83.38
72921;BME280;61064;51.654;5.476;2023-05-22T03:47:43;101436.38;;;15.28;83.30
72921;BME280;61064;51.654;5.476;2023-05-22T03:50:11;101426.56;;;15.23;83.48
72921;BME280;61064;51.654;5.476;2023-05-22T03:52:37;101423.91;;;15.18;83.36
72921;BME280;61064;51.654;5.476;2023-05-22T03:55:06;101424.81;;;15.14;83.55
72921;BME280;61064;51.654;5.476;2023-05-22T03:57:31;101411.44;;;15.04;83.42
72921;BME280;61064;51.654;5.476;2023-05-22T04:00:00;101429.28;;;15.08;83.44
72921;BME280;61064;51.654;5.476;2023-05-22T04:02:33;101435.56;;;15.04;83.44
72921;BME280;61064;51.654;5.476;2023-05-22T04:04:59;101438.22;;;14.99;83.36
72921;BME280;61064;51.654;5.476;2023-05-22T04:07:24;101438.25;;;14.96;83.43
72921;BME280;61064;51.654;5.476;2023-05-22T04:09:50;101439.13;;;14.93;83.68
72921;BME280;61064;51.654;5.476;2023-05-22T04:12:15;101436.47;;;14.89;83.47
72921;BME280;61064;51.654;5.476;2023-05-22T04:14:40;101430.22;;;14.85;83.59
72921;BME280;61064;51.654;5.476;2023-05-22T04:17:05;101443.63;;;14.82;83.64
72921;BME280;61064;51.654;5.476;2023-05-22T04:19:31;101439.19;;;14.81;83.47
72921;BME280;61064;51.654;5.476;2023-05-22T04:21:57;101440.97;;;14.79;83.65
72921;BME280;61064;51.654;5.476;2023-05-22T04:24:23;101434.72;;;14.74;83.65
72921;BME280;61064;51.654;5.476;2023-05-22T04:26:48;101441.84;;;14.72;83.61
72921;BME280;61064;51.654;5.476;2023-05-22T04:29:14;101443.66;;;14.70;83.79
72921;BME280;61064;51.654;5.476;2023-05-22T04:31:41;101449.91;;;14.69;83.84
72921;BME280;61064;51.654;5.476;2023-05-22T04:34:09;101450.78;;;14.67;83.77
72921;BME280;61064;51.654;5.476;2023-05-22T04:36:35;101450.81;;;14.64;83.87
72921;BME280;61064;51.654;5.476;2023-05-22T04:39:03;101449.00;;;14.64;83.80
72921;BME280;61064;51.654;5.476;2023-05-22T04:41:28;101459.72;;;14.61;84.05
72921;BME280;61064;51.654;5.476;2023-05-22T04:43:54;101450.81;;;14.59;83.96
72921;BME280;61064;51.654;5.476;2023-05-22T04:46:20;101458.84;;;14.59;83.99
72921;BME280;61064;51.654;5.476;2023-05-22T04:48:46;101460.63;;;14.57;84.12
72921;BME280;61064;51.654;5.476;2023-05-22T04:51:11;101461.53;;;14.53;84.27
72921;BME280;61064;51.654;5.476;2023-05-22T04:53:38;101465.09;;;14.53;84.31
72921;BME280;61064;51.654;5.476;2023-05-22T04:56:04;101465.97;;;14.54;84.42
72921;BME280;61064;51.654;5.476;2023-05-22T04:58:30;101468.63;;;14.55;84.49
72921;BME280;61064;51.654;5.476;2023-05-22T05:00:55;101466.88;;;14.57;84.47
72921;BME280;61064;51.654;5.476;2023-05-22T05:03:22;101470.44;;;14.56;84.50
72921;BME280;61064;51.654;5.476;2023-05-22T05:05:50;101465.97;;;14.59;84.60
72921;BME280;61064;51.654;5.476;2023-05-22T05:08:15;101464.19;;;14.64;84.68
72921;BME280;61064;51.654;5.476;2023-05-22T05:10:40;101471.31;;;14.66;84.65
72921;BME280;61064;51.654;5.476;2023-05-22T05:13:06;101473.13;;;14.69;84.63
72921;BME280;61064;51.654;5.476;2023-05-22T05:15:31;101478.47;;;14.73;84.59
72921;BME280;61064;51.654;5.476;2023-05-22T05:17:56;101473.13;;;14.76;84.62
72921;BME280;61064;51.654;5.476;2023-05-22T05:20:28;101465.97;;;14.75;84.80
72921;BME280;61064;51.654;5.476;2023-05-22T05:22:54;101467.75;;;14.81;84.97
72921;BME280;61064;51.654;5.476;2023-05-22T05:25:20;101476.66;;;14.84;84.79
72921;BME280;61064;51.654;5.476;2023-05-22T05:27:45;101478.44;;;14.90;84.99
72921;BME280;61064;51.654;5.476;2023-05-22T05:30:11;101479.34;;;14.96;84.82
72921;BME280;61064;51.654;5.476;2023-05-22T05:32:37;101477.53;;;15.00;84.86
72921;BME280;61064;51.654;5.476;2023-05-22T05:35:02;101482.88;;;15.05;84.85
72921;BME280;61064;51.654;5.476;2023-05-22T05:37:28;101485.56;;;15.08;84.77
72921;BME280;61064;51.654;5.476;2023-05-22T05:39:53;101482.00;;;15.09;84.77
72921;BME280;61064;51.654;5.476;2023-05-22T05:42:18;101475.75;;;15.10;84.73
72921;BME280;61064;51.654;5.476;2023-05-22T05:44:44;101480.19;;;15.14;85.06
72921;BME280;61064;51.654;5.476;2023-05-22T05:47:10;101480.19;;;15.20;84.90
72921;BME280;61064;51.654;5.476;2023-05-22T05:49:35;101484.63;;;15.27;85.00
72921;BME280;61064;51.654;5.476;2023-05-22T05:52:01;101488.19;;;15.33;84.84
72921;BME280;61064;51.654;5.476;2023-05-22T05:54:27;101487.28;;;15.34;84.88
72921;BME280;61064;51.654;5.476;2023-05-22T05:56:52;101488.19;;;15.43;84.69
72921;BME280;61064;51.654;5.476;2023-05-22T05:59:17;101488.16;;;15.49;84.58
72921;BME280;61064;51.654;5.476;2023-05-22T06:01:44;101491.72;;;15.57;84.73
72921;BME280;61064;51.654;5.476;2023-05-22T06:04:12;101499.75;;;15.61;84.57
72921;BME280;61064;51.654;5.476;2023-05-22T06:06:38;101494.38;;;15.64;84.61
72921;BME280;61064;51.654;5.476;2023-05-22T06:09:05;101480.94;;;15.67;84.38
72921;BME280;61064;51.654;5.476;2023-05-22T06:11:33;101482.69;;;15.77;84.58
72921;BME280;61064;51.654;5.476;2023-05-22T06:13:59;101494.28;;;15.86;84.63
72921;BME280;61064;51.654;5.476;2023-05-22T06:16:25;101501.38;;;15.99;84.43
72921;BME280;61064;51.654;5.476;2023-05-22T06:18:51;101492.38;;;16.07;84.61
72921;BME280;61064;51.654;5.476;2023-05-22T06:21:19;101491.44;;;16.14;84.18
72921;BME280;61064;51.654;5.476;2023-05-22T06:23:46;101502.16;;;16.20;83.96
72921;BME280;61064;51.654;5.476;2023-05-22T06:26:12;101497.66;;;16.22;84.04
72921;BME280;61064;51.654;5.476;2023-05-22T06:28:44;101493.19;;;16.21;83.92
72921;BME280;61064;51.654;5.476;2023-05-22T06:31:09;101507.41;;;16.34;83.70
72921;BME280;61064;51.654;5.476;2023-05-22T06:33:35;101504.72;;;16.34;83.64
72921;BME280;61064;51.654;5.476;2023-05-22T06:36:04;101506.53;;;16.37;83.60
72921;BME280;61064;51.654;5.476;2023-05-22T06:38:30;101515.44;;;16.42;83.68
72921;BME280;61064;51.654;5.476;2023-05-22T06:40:56;101513.63;;;16.44;83.48
72921;BME280;61064;51.654;5.476;2023-05-22T06:43:21;101512.75;;;16.43;83.56
72921;BME280;61064;51.654;5.476;2023-05-22T06:45:47;101510.88;;;16.53;83.40
72921;BME280;61064;51.654;5.476;2023-05-22T06:48:12;101517.09;;;16.62;83.36
72921;BME280;61064;51.654;5.476;2023-05-22T06:50:37;101505.47;;;16.62;83.31
72921;BME280;61064;51.654;5.476;2023-05-22T06:53:03;101514.31;;;16.76;83.34
72921;BME280;61064;51.654;5.476;2023-05-22T06:55:28;101512.47;;;16.80;83.03
72921;BME280;61064;51.654;5.476;2023-05-22T06:57:53;101528.50;;;16.89;82.89
72921;BME280;61064;51.654;5.476;2023-05-22T07:00:19;101508.81;;;16.90;82.85
72921;BME280;61064;51.654;5.476;2023-05-22T07:02:44;101515.91;;;16.95;82.73
72921;BME280;61064;51.654;5.476;2023-05-22T07:05:10;101518.59;;;16.97;82.67
72921;BME280;61064;51.654;5.476;2023-05-22T07:07:35;101519.44;;;17.02;82.77
72921;BME280;61064;51.654;5.476;2023-05-22T07:10:01;101514.97;;;17.01;82.86
72921;BME280;61064;51.654;5.476;2023-05-22T07:12:26;101525.63;;;17.12;82.59
72921;BME280;61064;51.654;5.476;2023-05-22T07:14:52;101528.31;;;17.15;82.43
72921;BME280;61064;51.654;5.476;2023-05-22T07:17:18;101523.78;;;17.18;82.35
72921;BME280;61064;51.654;5.476;2023-05-22T07:19:46;101524.66;;;17.19;82.33
72921;BME280;61064;51.654;5.476;2023-05-22T07:22:11;101517.44;;;17.24;82.34
72921;BME280;61064;51.654;5.476;2023-05-22T07:24:36;101523.66;;;17.30;82.44
72921;BME280;61064;51.654;5.476;2023-05-22T07:27:02;101525.41;;;17.34;82.04
72921;BME280;61064;51.654;5.476;2023-05-22T07:29:28;101526.22;;;17.39;81.85
72921;BME280;61064;51.654;5.476;2023-05-22T07:31:54;101524.38;;;17.46;81.87
72921;BME280;61064;51.654;5.476;2023-05-22T07:34:19;101530.59;;;17.51;81.73
72921;BME280;61064;51.654;5.476;2023-05-22T07:36:44;101534.13;;;17.58;81.65
72921;BME280;61064;51.654;5.476;2023-05-22T07:39:10;101543.88;;;17.69;81.39
72921;BME280;61064;51.654;5.476;2023-05-22T07:41:35;101544.66;;;17.79;81.38
72921;BME280;61064;51.654;5.476;2023-05-22T07:44:01;101546.38;;;17.88;81.19
72921;BME280;61064;51.654;5.476;2023-05-22T07:46:26;101536.38;;;17.96;80.89
72921;BME280;61064;51.654;5.476;2023-05-22T07:48:51;101526.41;;;18.05;80.91
72921;BME280;61064;51.654;5.476;2023-05-22T07:51:16;101541.44;;;18.18;80.83
72921;BME280;61064;51.654;5.476;2023-05-22T07:53:43;101538.66;;;18.26;80.66
72921;BME280;61064;51.654;5.476;2023-05-22T07:56:08;101550.19;;;18.37;80.34
72921;BME280;61064;51.654;5.476;2023-05-22T07:58:34;101552.69;;;18.49;80.12
72921;BME280;61064;51.654;5.476;2023-05-22T08:01:01;101531.94;;;18.57;79.89
72921;BME280;61064;51.654;5.476;2023-05-22T08:03:26;101538.13;;;18.64;79.67
72921;BME280;61064;51.654;5.476;2023-05-22T08:05:52;101545.16;;;18.73;79.54
72921;BME280;61064;51.654;5.476;2023-05-22T08:08:17;101545.94;;;18.82;79.24
72921;BME280;61064;51.654;5.476;2023-05-22T08:10:42;101550.25;;;18.91;78.92
72921;BME280;61064;51.654;5.476;2023-05-22T08:13:08;101552.03;;;18.93;78.80
72921;BME280;61064;51.654;5.476;2023-05-22T08:15:34;101542.94;;;18.99;78.56
72921;BME280;61064;51.654;5.476;2023-05-22T08:18:00;101554.53;;;19.05;78.59
72921;BME280;61064;51.654;5.476;2023-05-22T08:20:25;101547.19;;;19.12;78.49
72921;BME280;61064;51.654;5.476;2023-05-22T08:22:51;101546.25;;;19.16;78.09
72921;BME280;61064;51.654;5.476;2023-05-22T08:25:16;101541.78;;;19.14;78.02
72921;BME280;61064;51.654;5.476;2023-05-22T08:27:42;101537.38;;;19.08;77.94
72921;BME280;61064;51.654;5.476;2023-05-22T08:30:07;101543.59;;;19.11;78.20
72921;BME280;61064;51.654;5.476;2023-05-22T08:32:33;101541.69;;;19.18;77.97
72921;BME280;61064;51.654;5.476;2023-05-22T08:34:59;101539.78;;;19.25;77.99
72921;BME280;61064;51.654;5.476;2023-05-22T08:37:24;101527.88;;;19.36;77.94
72921;BME280;61064;51.654;5.476;2023-05-22T08:39:50;101535.69;;;19.53;77.54
72921;BME280;61064;51.654;5.476;2023-05-22T08:42:15;101538.88;;;19.73;77.37
72921;BME280;61064;51.654;5.476;2023-05-22T08:44:41;101532.31;;;19.85;77.02
72921;BME280;61064;51.654;5.476;2023-05-22T08:47:07;101544.59;;;20.01;76.48
72921;BME280;61064;51.654;5.476;2023-05-22T08:49:37;101545.53;;;20.00;76.10
72921;BME280;61064;51.654;5.476;2023-05-22T08:52:08;101540.16;;;19.99;75.98
72921;BME280;61064;51.654;5.476;2023-05-22T08:54:35;101539.97;;;20.06;76.45
72921;BME280;61064;51.654;5.476;2023-05-22T08:57:05;101544.03;;;20.27;76.20
72921;BME280;61064;51.654;5.476;2023-05-22T08:59:31;101544.63;;;20.41;75.79
72921;BME280;61064;51.654;5.476;2023-05-22T09:01:56;101542.56;;;20.52;75.50
72921;BME280;61064;51.654;5.476;2023-05-22T09:04:23;101538.63;;;20.67;74.95
72921;BME280;61064;51.654;5.476;2023-05-22T09:06:48;101538.31;;;20.79;74.98
72921;BME280;61064;51.654;5.476;2023-05-22T09:09:14;101539.63;;;20.98;74.60
72921;BME280;61064;51.654;5.476;2023-05-22T09:11:43;101524.81;;;21.13;73.95
72921;BME280;61064;51.654;5.476;2023-05-22T09:14:09;101527.19;;;21.27;73.71
72921;BME280;61064;51.654;5.476;2023-05-22T09:19:11;101532.34;;;21.68;73.05
72921;BME280;61064;51.654;5.476;2023-05-22T09:21:37;101519.13;;;21.88;72.33
72921;BME280;61064;51.654;5.476;2023-05-22T09:24:02;101514.16;;;22.04;71.72
72921;BME280;61064;51.654;5.476;2023-05-22T09:26:27;101527.03;;;22.27;71.77
72921;BME280;61064;51.654;5.476;2023-05-22T09:28:53;101523.78;;;22.44;70.82
72921;BME280;61064;51.654;5.476;2023-05-22T09:31:18;101518.59;;;22.64;70.47
72921;BME280;61064;51.654;5.476;2023-05-22T09:33:44;101525.28;;;22.82;70.12
72921;BME280;61064;51.654;5.476;2023-05-22T09:36:10;101514.06;;;22.92;69.67
72921;BME280;61064;51.654;5.476;2023-05-22T09:38:35;101530.56;;;23.12;69.25
72921;BME280;61064;51.654;5.476;2023-05-22T09:41:01;101525.53;;;23.27;68.58
72921;BME280;61064;51.654;5.476;2023-05-22T09:43:27;101520.72;;;23.35;68.22
72921;BME280;61064;51.654;5.476;2023-05-22T09:45:56;101526.88;;;23.40;67.25
72921;BME280;61064;51.654;5.476;2023-05-22T09:48:22;101524.09;;;23.41;67.52
72921;BME280;61064;51.654;5.476;2023-05-22T09:50:53;101516.78;;;23.43;67.07
72921;BME280;61064;51.654;5.476;2023-05-22T09:53:25;101526.63;;;23.47;66.78
72921;BME280;61064;51.654;5.476;2023-05-22T09:55:54;101515.59;;;23.52;66.60
72921;BME280;61064;51.654;5.476;2023-05-22T09:58:23;101509.16;;;23.54;66.27
72921;BME280;61064;51.654;5.476;2023-05-22T10:00:51;101513.97;;;23.71;66.02
72921;BME280;61064;51.654;5.476;2023-05-22T10:03:21;101501.84;;;23.80;65.50
72921;BME280;61064;51.654;5.476;2023-05-22T10:05:49;101509.44;;;23.95;65.08
72921;BME280;61064;51.654;5.476;2023-05-22T10:08:24;101509.78;;;24.09;64.78
72921;BME280;61064;51.654;5.476;2023-05-22T10:10:51;101511.09;;;24.24;64.47
72921;BME280;61064;51.654;5.476;2023-05-22T10:13:17;101512.41;;;24.35;63.94
72921;BME280;61064;51.654;5.476;2023-05-22T10:15:46;101508.25;;;24.49;63.46
72921;BME280;61064;51.654;5.476;2023-05-22T10:18:13;101510.41;;;24.62;62.86
72921;BME280;61064;51.654;5.476;2023-05-22T10:20:39;101505.47;;;24.72;62.87
72921;BME280;61064;51.654;5.476;2023-05-22T10:23:06;101512.06;;;24.88;62.59
72921;BME280;61064;51.654;5.476;2023-05-22T10:25:33;101507.06;;;24.99;62.19
72921;BME280;61064;51.654;5.476;2023-05-22T10:27:59;101505.69;;;25.09;61.73
72921;BME280;61064;51.654;5.476;2023-05-22T10:31:03;101500.31;;;25.08;61.57
72921;BME280;61064;51.654;5.476;2023-05-22T10:33:40;101496.66;;;25.09;61.20
72921;BME280;61064;51.654;5.476;2023-05-22T10:36:49;101497.53;;;25.09;61.64
72921;BME280;61064;51.654;5.476;2023-05-22T10:41:54;101502.72;;;25.36;60.99
72921;BME280;61064;51.654;5.476;2023-05-22T10:44:20;101492.16;;;25.48;60.50
72921;BME280;61064;51.654;5.476;2023-05-22T10:46:49;101487.81;;;25.64;59.88
72921;BME280;61064;51.654;5.476;2023-05-22T10:49:21;101489.47;;;25.69;59.42
72921;BME280;61064;51.654;5.476;2023-05-22T10:51:48;101487.25;;;25.77;59.11
72921;BME280;61064;51.654;5.476;2023-05-22T10:54:13;101487.50;;;25.91;59.17
72921;BME280;61064;51.654;5.476;2023-05-22T10:56:39;101485.88;;;26.05;58.63
72921;BME280;61064;51.654;5.476;2023-05-22T10:59:05;101491.41;;;26.24;58.07
72921;BME280;61064;51.654;5.476;2023-05-22T11:01:32;101486.31;;;26.35;57.34
72921;BME280;61064;51.654;5.476;2023-05-22T11:04:08;101483.56;;;26.35;57.06
72921;BME280;61064;51.654;5.476;2023-05-22T11:06:43;101491.47;;;26.23;57.00
72921;BME280;61064;51.654;5.476;2023-05-22T11:09:31;101498.50;;;26.08;57.41
72921;BME280;61064;51.654;5.476;2023-05-22T11:15:05;101489.94;;;26.16;57.68
72921;BME280;61064;51.654;5.476;2023-05-22T11:17:32;101484.94;;;26.25;57.57
72921;BME280;61064;51.654;5.476;2023-05-22T11:20:20;101477.72;;;26.43;57.43
72921;BME280;61064;51.654;5.476;2023-05-22T11:22:59;101474.44;;;26.54;57.11
72921;BME280;61064;51.654;5.476;2023-05-22T11:25:26;101484.63;;;26.69;56.78
72921;BME280;61064;51.654;5.476;2023-05-22T11:27:52;101482.06;;;26.83;56.15
72921;BME280;61064;51.654;5.476;2023-05-22T11:30:19;101473.28;;;26.95;55.94
72921;BME280;61064;51.654;5.476;2023-05-22T11:32:45;101478.91;;;27.09;55.27
72921;BME280;61064;51.654;5.476;2023-05-22T11:35:17;101475.22;;;27.10;54.46
72921;BME280;61064;51.654;5.476;2023-05-22T11:37:43;101486.13;;;27.10;55.18
72921;BME280;61064;51.654;5.476;2023-05-22T11:40:09;101481.50;;;27.12;55.04
72921;BME280;61064;51.654;5.476;2023-05-22T11:42:36;101483.25;;;27.13;54.96
72921;BME280;61064;51.654;5.476;2023-05-22T11:45:05;101477.94;;;27.10;55.14
72921;BME280;61064;51.654;5.476;2023-05-22T11:47:31;101469.09;;;27.22;54.95
72921;BME280;61064;51.654;5.476;2023-05-22T11:49:57;101477.78;;;27.30;54.43
72921;BME280;61064;51.654;5.476;2023-05-22T11:52:22;101475.47;;;27.23;54.25
72921;BME280;61064;51.654;5.476;2023-05-22T11:54:50;101466.31;;;27.24;54.50
72921;BME280;61064;51.654;5.476;2023-05-22T11:57:17;101461.63;;;27.26;54.44
72921;BME280;61064;51.654;5.476;2023-05-22T11:59:46;101461.03;;;27.37;54.31
72921;BME280;61064;51.654;5.476;2023-05-22T12:02:12;101455.94;;;27.30;53.57
72921;BME280;61064;51.654;5.476;2023-05-22T12:04:38;101463.72;;;27.21;53.90
72921;BME280;61064;51.654;5.476;2023-05-22T12:07:04;101463.56;;;27.24;53.77
72921;BME280;61064;51.654;5.476;2023-05-22T12:09:30;101466.06;;;27.28;53.81
72921;BME280;61064;51.654;5.476;2023-05-22T12:11:58;101461.22;;;27.34;53.68
72921;BME280;61064;51.654;5.476;2023-05-22T12:14:25;101462.50;;;27.44;53.64
72921;BME280;61064;51.654;5.476;2023-05-22T12:16:51;101469.09;;;27.57;53.16
72921;BME280;61064;51.654;5.476;2023-05-22T12:19:17;101460.91;;;27.57;52.94
72921;BME280;61064;51.654;5.476;2023-05-22T12:21:43;101459.06;;;27.57;53.05
72921;BME280;61064;51.654;5.476;2023-05-22T12:24:09;101466.13;;;27.61;53.00
72921;BME280;61064;51.654;5.476;2023-05-22T12:26:35;101458.88;;;27.60;52.71
72921;BME280;61064;51.654;5.476;2023-05-22T12:29:04;101455.38;;;27.58;52.77
72921;BME280;61064;51.654;5.476;2023-05-22T12:31:33;101452.53;;;27.60;52.42
72921;BME280;61064;51.654;5.476;2023-05-22T12:34:06;101459.44;;;27.67;52.42
72921;BME280;61064;51.654;5.476;2023-05-22T12:36:39;101448.50;;;27.67;52.35
72921;BME280;61064;51.654;5.476;2023-05-22T12:39:17;101450.59;;;27.62;52.39
72921;BME280;61064;51.654;5.476;2023-05-22T12:41:44;101449.63;;;27.63;52.67
72921;BME280;61064;51.654;5.476;2023-05-22T12:44:10;101453.75;;;27.54;52.29
72921;BME280;61064;51.654;5.476;2023-05-22T12:46:35;101440.63;;;27.44;52.47
72921;BME280;61064;51.654;5.476;2023-05-22T12:49:01;101447.69;;;27.48;52.75
72921;BME280;61064;51.654;5.476;2023-05-22T12:51:28;101443.22;;;27.64;52.48
72921;BME280;61064;51.654;5.476;2023-05-22T12:53:57;101446.03;;;27.78;52.23
72921;BME280;61064;51.654;5.476;2023-05-22T12:56:23;101434.22;;;27.78;51.82
72921;BME280;61064;51.654;5.476;2023-05-22T12:58:49;101450.56;;;27.79;51.96
72921;BME280;61064;51.654;5.476;2023-05-22T13:01:14;101436.94;;;27.78;52.08
72921;BME280;61064;51.654;5.476;2023-05-22T13:03:40;101437.44;;;27.86;51.99
72921;BME280;61064;51.654;5.476;2023-05-22T13:06:05;101439.97;;;27.89;52.17
72921;BME280;61064;51.654;5.476;2023-05-22T13:08:31;101446.41;;;27.88;52.14
72921;BME280;61064;51.654;5.476;2023-05-22T13:10:56;101445.63;;;27.86;51.99
72921;BME280;61064;51.654;5.476;2023-05-22T13:13:22;101448.44;;;27.84;51.83